Time;durP1;ratioP1;P1;durP2;ratioP2;P2;SDS_P1;SDS_P2;PMS_P1;PMS_P2;Temp;Humidity;BMP_temperature;BMP_pressure;BME280_temperature;BME280_humidity;BME280_pressure;Samples;Min_cycle;Max_cycle;Signal;HPM_P1;HPM_P2
2021/05/22 00:00:10;;;;;;;3.67;1.30;;;7.70;99.90;;;;;;4937517;29;20251;-75
2021/05/22 00:02:36;;;;;;;5.10;1.60;;;7.70;99.90;;;;;;4937013;29;20248;-75
2021/05/22 00:05:03;;;;;;;3.00;1.63;;;7.80;99.90;;;;;;4937043;29;20233;-74
2021/05/22 00:07:28;;;;;;;7.68;1.58;;;8.00;99.90;;;;;;4937575;29;20417;-74
2021/05/22 00:09:54;;;;;;;1.63;1.43;;;8.30;99.90;;;;;;4937237;29;20252;-76
2021/05/22 00:12:19;;;;;;;6.43;1.50;;;8.50;99.90;;;;;;4937173;29;20220;-75
2021/05/22 00:14:45;;;;;;;3.10;1.17;;;8.40;99.90;;;;;;4951726;29;20208;-74
2021/05/22 00:17:11;;;;;;;4.17;1.40;;;8.50;99.90;;;;;;4937443;29;20182;-75
2021/05/22 00:19:36;;;;;;;3.53;1.33;;;8.40;99.90;;;;;;4937348;29;20263;-75
2021/05/22 00:22:02;;;;;;;2.43;1.60;;;8.30;99.90;;;;;;4937330;29;20228;-75
2021/05/22 00:24:28;;;;;;;2.70;1.67;;;8.30;99.90;;;;;;4936771;29;20213;-75
2021/05/22 00:26:54;;;;;;;4.80;1.70;;;8.20;99.90;;;;;;4937222;29;21017;-75
2021/05/22 00:29:20;;;;;;;5.00;1.37;;;8.30;99.90;;;;;;4937217;29;20272;-75
2021/05/22 00:31:46;;;;;;;2.92;2.13;;;8.30;99.90;;;;;;4937082;29;20177;-75
2021/05/22 00:34:12;;;;;;;4.13;1.30;;;8.30;99.90;;;;;;4936651;29;20212;-75
2021/05/22 00:36:37;;;;;;;5.88;1.48;;;8.30;99.90;;;;;;4936949;29;20192;-75
2021/05/22 00:39:04;;;;;;;1.83;1.10;;;8.30;99.90;;;;;;4951957;29;20178;-75
2021/05/22 00:41:30;;;;;;;3.40;1.20;;;8.30;99.90;;;;;;4936780;29;20216;-75
2021/05/22 00:43:55;;;;;;;5.27;1.63;;;8.30;99.90;;;;;;4936569;29;20193;-74
2021/05/22 00:46:21;;;;;;;4.13;1.50;;;8.30;99.90;;;;;;4936727;29;20178;-78
2021/05/22 00:48:47;;;;;;;3.67;1.60;;;8.40;99.90;;;;;;4936860;29;20185;-75
2021/05/22 00:51:13;;;;;;;4.20;1.33;;;8.50;99.90;;;;;;4936792;29;20190;-74
2021/05/22 00:53:39;;;;;;;3.90;1.35;;;8.60;99.90;;;;;;4936143;29;20618;-75
2021/05/22 00:56:05;;;;;;;4.33;1.30;;;8.50;99.90;;;;;;4936079;29;20264;-74
2021/05/22 00:58:32;;;;;;;5.43;1.40;;;8.50;99.90;;;;;;4936507;29;20208;-75
2021/05/22 01:00:59;;;;;;;8.05;1.67;;;8.60;99.90;;;;;;4951134;29;20818;-74
2021/05/22 01:03:28;;;;;;;7.07;1.77;;;8.60;99.90;;;;;;4950929;29;20209;-75
2021/05/22 01:06:10;;;;;;;5.35;1.20;;;8.60;99.90;;;;;;4936522;29;20166;-75
2021/05/22 01:08:37;;;;;;;2.50;1.23;;;8.60;99.90;;;;;;4936426;29;20162;-74
2021/05/22 01:11:10;;;;;;;5.07;1.15;;;8.60;99.90;;;;;;4936402;29;20189;-74
2021/05/22 01:13:38;;;;;;;9.07;1.45;;;8.50;99.90;;;;;;4934535;29;20320;-75
2021/05/22 01:16:05;;;;;;;4.53;1.63;;;8.50;99.90;;;;;;4936336;29;20194;-74
2021/05/22 01:18:31;;;;;;;3.40;1.27;;;8.50;99.90;;;;;;4936182;29;20178;-75
2021/05/22 01:20:59;;;;;;;1.60;1.00;;;8.50;99.90;;;;;;4936127;29;20205;-74
2021/05/22 01:23:31;;;;;;;2.80;1.70;;;8.60;99.90;;;;;;4935662;29;20213;-75
2021/05/22 01:25:58;;;;;;;2.38;1.30;;;8.50;99.90;;;;;;4934988;29;20205;-75
2021/05/22 01:28:24;;;;;;;3.03;1.25;;;8.40;99.90;;;;;;4936211;29;20181;-75
2021/05/22 01:30:50;;;;;;;4.32;1.30;;;8.40;99.90;;;;;;4936322;29;20184;-75
2021/05/22 01:33:17;;;;;;;3.03;1.23;;;8.30;99.90;;;;;;4935772;29;20241;-75
2021/05/22 01:35:43;;;;;;;1.98;1.10;;;8.30;99.90;;;;;;4936078;29;20843;-74
2021/05/22 01:38:09;;;;;;;3.80;1.50;;;8.30;99.90;;;;;;4936260;29;20188;-74
2021/05/22 01:40:35;;;;;;;6.00;1.40;;;8.30;99.90;;;;;;4936010;29;20646;-74
2021/05/22 01:43:02;;;;;;;6.15;1.30;;;8.30;99.90;;;;;;4950296;29;20415;-74
2021/05/22 01:45:31;;;;;;;5.15;1.30;;;8.40;99.90;;;;;;4936107;29;20185;-75
2021/05/22 01:47:59;;;;;;;11.70;1.10;;;8.40;99.90;;;;;;4936123;29;20177;-74
2021/05/22 01:50:26;;;;;;;3.08;0.90;;;8.50;99.90;;;;;;4935954;29;20178;-74
2021/05/22 01:52:54;;;;;;;2.08;1.25;;;8.50;99.90;;;;;;4935508;29;20193;-75
2021/05/22 01:55:21;;;;;;;5.28;1.80;;;8.50;99.90;;;;;;4935951;29;20540;-75
2021/05/22 01:57:46;;;;;;;3.03;1.55;;;8.50;99.90;;;;;;4935915;29;20185;-74
2021/05/22 02:00:14;;;;;;;2.33;1.30;;;8.50;99.90;;;;;;4935910;29;20192;-75
2021/05/22 02:03:16;;;;;;;2.45;1.00;;;8.40;99.90;;;;;;4950460;29;20215;-75
2021/05/22 02:05:44;;;;;;;3.80;1.42;;;8.30;99.90;;;;;;4906250;29;20189;-75
2021/05/22 02:08:16;;;;;;;5.60;1.50;;;8.40;99.90;;;;;;4939754;29;20262;-75
2021/05/22 02:10:42;;;;;;;3.08;1.45;;;8.30;99.90;;;;;;4939689;29;20173;-75
2021/05/22 02:13:08;;;;;;;1.40;1.00;;;8.30;99.90;;;;;;4939190;29;20200;-75
2021/05/22 02:15:37;;;;;;;7.20;1.50;;;8.20;99.90;;;;;;4939622;29;20180;-75
2021/05/22 02:18:05;;;;;;;2.05;1.00;;;8.20;99.90;;;;;;4939449;29;20421;-75
2021/05/22 02:20:32;;;;;;;5.30;1.35;;;8.20;99.90;;;;;;4939358;29;20197;-75
2021/05/22 02:23:01;;;;;;;4.10;1.27;;;8.20;99.90;;;;;;4939329;29;20190;-75
2021/05/22 02:25:26;;;;;;;2.22;1.70;;;8.10;99.90;;;;;;4939381;29;20212;-74
2021/05/22 02:27:54;;;;;;;3.40;1.47;;;8.10;99.90;;;;;;4939594;29;20213;-75
2021/05/22 02:30:20;;;;;;;2.65;1.35;;;8.10;99.90;;;;;;4939312;29;20776;-75
2021/05/22 02:32:48;;;;;;;4.65;1.50;;;8.10;99.90;;;;;;4939145;29;20197;-75
2021/05/22 02:35:16;;;;;;;3.15;1.40;;;8.10;99.90;;;;;;4939076;29;20268;-75
2021/05/22 02:37:42;;;;;;;2.75;1.70;;;8.10;99.90;;;;;;4939199;29;20182;-75
2021/05/22 02:40:17;;;;;;;4.90;1.40;;;8.20;99.90;;;;;;4953995;29;20277;-75
2021/05/22 02:42:50;;;;;;;4.40;1.50;;;8.10;99.90;;;;;;4938946;29;20196;-75
2021/05/22 02:45:17;;;;;;;4.05;1.30;;;8.20;99.90;;;;;;4939073;29;20166;-75
2021/05/22 02:47:46;;;;;;;5.30;1.48;;;8.20;99.90;;;;;;4939000;29;20219;-75
2021/05/22 02:50:12;;;;;;;3.13;1.77;;;8.10;99.90;;;;;;4939008;29;20294;-75
2021/05/22 02:52:39;;;;;;;4.13;1.35;;;8.10;99.90;;;;;;4938996;29;20174;-75
2021/05/22 02:55:07;;;;;;;4.25;1.50;;;8.30;99.90;;;;;;4938837;29;20209;-75
2021/05/22 02:57:34;;;;;;;4.13;1.65;;;8.20;99.90;;;;;;4938785;29;20196;-75
2021/05/22 03:00:01;;;;;;;4.18;1.85;;;8.20;99.90;;;;;;4938821;29;20182;-75
2021/05/22 03:02:27;;;;;;;6.75;2.88;;;8.10;99.90;;;;;;4938703;29;20214;-75
2021/05/22 03:04:54;;;;;;;3.40;2.08;;;8.10;99.90;;;;;;4938342;29;20204;-75
2021/05/22 03:07:19;;;;;;;2.95;1.50;;;8.10;99.90;;;;;;4938683;29;20177;-75
2021/05/22 03:09:46;;;;;;;1.70;1.20;;;8.10;99.90;;;;;;4938563;29;20173;-75
2021/05/22 03:12:18;;;;;;;4.40;1.55;;;8.10;99.90;;;;;;4938688;29;20585;-75
2021/05/22 03:14:44;;;;;;;3.83;1.38;;;8.10;99.90;;;;;;4938245;29;20201;-75
2021/05/22 03:17:09;;;;;;;4.77;1.40;;;8.10;99.90;;;;;;4938014;29;20185;-75
2021/05/22 03:19:35;;;;;;;3.77;1.33;;;8.10;99.90;;;;;;4938066;29;20185;-75
2021/05/22 03:22:01;;;;;;;4.00;1.50;;;8.10;99.90;;;;;;4938276;29;20228;-76
2021/05/22 03:24:26;;;;;;;5.50;1.60;;;8.00;99.90;;;;;;4938008;29;20226;-75
2021/05/22 03:26:53;;;;;;;2.70;1.70;;;8.10;99.90;;;;;;4953022;29;20192;-75
2021/05/22 03:29:19;;;;;;;5.05;2.15;;;8.10;99.90;;;;;;4938085;29;20177;-75
2021/05/22 03:31:44;;;;;;;4.90;1.93;;;8.00;99.90;;;;;;4938015;29;20294;-75
2021/05/22 03:34:10;;;;;;;4.13;1.50;;;8.10;99.90;;;;;;4937597;29;20445;-75
2021/05/22 03:36:36;;;;;;;2.77;1.40;;;8.00;99.90;;;;;;4938456;29;20185;-75
2021/05/22 03:39:02;;;;;;;2.17;1.00;;;8.10;99.90;;;;;;4952918;29;20325;-75
2021/05/22 03:41:28;;;;;;;6.95;1.77;;;8.10;99.90;;;;;;4937972;29;20202;-75
2021/05/22 03:43:53;;;;;;;5.27;1.60;;;8.20;99.90;;;;;;4937549;29;20278;-75
2021/05/22 03:46:19;;;;;;;4.10;1.57;;;8.10;99.90;;;;;;4937812;29;20178;-75
2021/05/22 03:48:44;;;;;;;5.90;1.67;;;8.20;99.90;;;;;;4952770;29;20190;-75
2021/05/22 03:51:10;;;;;;;11.43;1.83;;;8.20;99.90;;;;;;4937828;29;20269;-75
2021/05/22 03:53:35;;;;;;;4.40;1.80;;;8.20;99.90;;;;;;4937395;29;20209;-75
2021/05/22 03:56:01;;;;;;;2.03;1.20;;;8.40;99.90;;;;;;4937792;29;20612;-76
2021/05/22 03:58:27;;;;;;;5.80;1.83;;;8.40;99.90;;;;;;4952485;29;20185;-75
2021/05/22 04:00:52;;;;;;;8.47;1.90;;;8.50;99.90;;;;;;4937891;29;20599;-75
2021/05/22 04:03:18;;;;;;;2.93;1.57;;;8.60;99.90;;;;;;4937306;29;20229;-76
2021/05/22 04:05:44;;;;;;;3.93;1.60;;;8.60;99.90;;;;;;4937429;29;20177;-75
2021/05/22 04:08:09;;;;;;;4.00;1.40;;;8.70;99.90;;;;;;4937557;29;20201;-75
2021/05/22 04:10:35;;;;;;;5.40;1.50;;;8.70;99.90;;;;;;4937546;29;20178;-75
2021/05/22 04:13:01;;;;;;;4.30;1.60;;;8.90;99.90;;;;;;4937185;29;20228;-76
2021/05/22 04:15:26;;;;;;;5.23;1.70;;;9.00;99.90;;;;;;4937426;29;20174;-76
2021/05/22 04:17:52;;;;;;;10.63;1.40;;;9.00;99.90;;;;;;4937307;29;20181;-75
2021/05/22 04:20:18;;;;;;;2.63;1.43;;;9.20;99.90;;;;;;4937337;29;20261;-77
2021/05/22 04:22:43;;;;;;;2.40;1.50;;;9.10;99.90;;;;;;4936969;29;20202;-78
2021/05/22 04:25:10;;;;;;;3.30;2.10;;;9.20;99.90;;;;;;4937132;29;20686;-75
2021/05/22 04:27:35;;;;;;;6.80;1.58;;;9.30;99.90;;;;;;4937512;29;20182;-75
2021/05/22 04:30:01;;;;;;;6.50;1.60;;;9.30;99.90;;;;;;4936886;29;20193;-76
2021/05/22 04:32:26;;;;;;;3.40;1.57;;;9.40;99.90;;;;;;4936987;29;20647;-75
2021/05/22 04:34:52;;;;;;;7.33;1.30;;;9.60;99.90;;;;;;4936586;29;20608;-75
2021/05/22 04:37:18;;;;;;;5.80;1.20;;;9.70;99.90;;;;;;4936791;29;20219;-76
2021/05/22 04:39:43;;;;;;;3.40;1.70;;;9.80;99.90;;;;;;4937011;29;20209;-75
2021/05/22 04:42:09;;;;;;;3.03;1.20;;;9.80;99.90;;;;;;4936954;29;20277;-78
2021/05/22 04:44:34;;;;;;;5.03;1.37;;;9.90;99.90;;;;;;4936520;29;20206;-76
2021/05/22 04:47:00;;;;;;;5.67;1.33;;;9.90;99.90;;;;;;4936853;29;20178;-75
2021/05/22 04:49:28;;;;;;;5.20;1.40;;;10.10;99.90;;;;;;4936804;29;20608;-76
2021/05/22 04:51:57;;;;;;;7.72;1.30;;;10.10;99.90;;;;;;4936524;29;20187;-75
2021/05/22 04:54:23;;;;;;;8.02;1.50;;;10.10;99.90;;;;;;4936205;29;20755;-76
2021/05/22 04:56:48;;;;;;;6.33;1.47;;;10.20;99.90;;;;;;4951474;29;20189;-75
2021/05/22 04:59:14;;;;;;;2.80;1.37;;;10.20;99.90;;;;;;4936648;29;20420;-76
2021/05/22 05:01:40;;;;;;;1.93;1.10;;;10.30;99.90;;;;;;4936413;29;20217;-75
2021/05/22 05:04:07;;;;;;;4.47;1.50;;;10.40;99.90;;;;;;4936163;29;20503;-75
2021/05/22 05:06:33;;;;;;;5.75;1.27;;;10.40;99.90;;;;;;4936273;29;20547;-76
2021/05/22 05:08:58;;;;;;;4.43;1.43;;;10.40;99.90;;;;;;4936494;29;20173;-75
2021/05/22 05:11:24;;;;;;;7.77;1.87;;;10.40;99.90;;;;;;4936432;29;20324;-75
2021/05/22 05:13:50;;;;;;;3.83;1.40;;;10.50;99.90;;;;;;4936042;29;20434;-75
2021/05/22 05:16:16;;;;;;;3.27;1.00;;;10.50;99.90;;;;;;4936559;29;20651;-76
2021/05/22 05:18:42;;;;;;;3.30;1.23;;;10.50;99.90;;;;;;4936109;29;20823;-76
2021/05/22 05:21:08;;;;;;;5.78;1.55;;;10.60;99.90;;;;;;4936169;29;20811;-75
2021/05/22 05:23:38;;;;;;;2.60;1.27;;;10.60;99.90;;;;;;4950461;29;20224;-75
2021/05/22 05:26:04;;;;;;;3.08;1.27;;;10.60;99.90;;;;;;4936264;29;20177;-75
2021/05/22 05:28:30;;;;;;;1.55;1.13;;;10.60;99.90;;;;;;4936279;29;20177;-75
2021/05/22 05:30:56;;;;;;;3.63;1.15;;;10.70;99.90;;;;;;4936062;29;20181;-76
2021/05/22 05:33:21;;;;;;;2.70;1.00;;;10.80;99.90;;;;;;4935831;29;20264;-75
2021/05/22 05:35:47;;;;;;;3.90;1.30;;;10.90;99.90;;;;;;4936152;29;20515;-75
2021/05/22 05:38:13;;;;;;;2.70;0.90;;;11.00;99.90;;;;;;4936354;29;20185;-75
2021/05/22 05:40:39;;;;;;;6.70;2.17;;;10.90;99.90;;;;;;4935512;29;20421;-76
2021/05/22 05:43:09;;;;;;;7.10;1.57;;;11.00;99.90;;;;;;4950351;29;20185;-75
2021/05/22 05:45:35;;;;;;;3.88;1.30;;;11.10;99.90;;;;;;4936226;29;20181;-76
2021/05/22 05:48:00;;;;;;;2.40;0.90;;;11.10;99.90;;;;;;4936266;29;20188;-75
2021/05/22 05:50:26;;;;;;;4.40;1.37;;;11.20;99.90;;;;;;4936022;29;20655;-76
2021/05/22 05:52:52;;;;;;;8.90;1.40;;;11.10;99.90;;;;;;4935533;29;20472;-76
2021/05/22 05:55:17;;;;;;;3.70;1.00;;;11.10;99.90;;;;;;4935935;29;20661;-76
2021/05/22 05:57:43;;;;;;;3.07;1.90;;;11.20;99.90;;;;;;4936033;29;20185;-76
2021/05/22 06:00:10;;;;;;;2.93;1.27;;;11.20;99.90;;;;;;4935920;29;20264;-75
2021/05/22 06:02:35;;;;;;;3.67;1.10;;;11.30;99.90;;;;;;4935656;29;20590;-75
2021/05/22 06:05:02;;;;;;;3.23;1.30;;;11.40;99.90;;;;;;4950236;29;20287;-75
2021/05/22 06:07:28;;;;;;;3.77;1.20;;;11.40;99.90;;;;;;4935893;29;20240;-75
2021/05/22 06:09:54;;;;;;;1.98;1.20;;;11.50;99.90;;;;;;4935689;29;20406;-75
2021/05/22 06:12:19;;;;;;;2.00;0.97;;;11.60;99.90;;;;;;4935684;29;20228;-75
2021/05/22 06:14:51;;;;;;;4.93;0.90;;;11.70;99.90;;;;;;4935312;29;20229;-75
2021/05/22 06:17:17;;;;;;;2.70;1.20;;;11.80;99.90;;;;;;4950309;29;20197;-75
2021/05/22 06:19:42;;;;;;;2.73;1.20;;;11.90;99.90;;;;;;4935746;29;20432;-75
2021/05/22 06:22:08;;;;;;;1.90;0.80;;;11.80;99.90;;;;;;4950407;29;20678;-75
2021/05/22 06:24:34;;;;;;;3.70;0.90;;;11.80;99.90;;;;;;4935142;29;20272;-76
2021/05/22 06:27:00;;;;;;;3.27;1.03;;;12.00;99.90;;;;;;4935520;29;20182;-76
2021/05/22 06:29:25;;;;;;;1.33;0.73;;;12.20;99.90;;;;;;4950310;29;20422;-75
2021/05/22 06:31:51;;;;;;;1.37;0.80;;;12.10;99.90;;;;;;4935659;29;20186;-75
2021/05/22 06:34:17;;;;;;;1.93;0.90;;;12.10;99.90;;;;;;4935329;29;20198;-75
2021/05/22 06:36:42;;;;;;;8.03;1.07;;;12.00;99.90;;;;;;4935765;29;20196;-75
2021/05/22 06:39:08;;;;;;;3.27;0.97;;;11.80;99.90;;;;;;4935644;29;20422;-76
2021/05/22 06:41:33;;;;;;;5.27;1.10;;;11.80;99.90;;;;;;4935595;29;20198;-76
2021/05/22 06:43:59;;;;;;;2.50;0.77;;;11.90;99.90;;;;;;4949994;29;20561;-76
2021/05/22 06:48:51;;;;;;;2.95;0.80;;;11.90;99.90;;;;;;4935845;29;20189;-75
2021/05/22 06:51:17;;;;;;;2.83;0.90;;;11.90;99.90;;;;;;4935447;29;20185;-75
2021/05/22 06:53:42;;;;;;;3.30;1.00;;;11.80;99.90;;;;;;4951883;28;20240;-76
2021/05/22 06:56:08;;;;;;;5.70;1.23;;;11.80;99.90;;;;;;4938997;29;20181;-76
2021/05/22 06:58:33;;;;;;;5.63;1.10;;;11.70;99.90;;;;;;4938846;29;20178;-75
2021/05/22 07:00:59;;;;;;;3.93;1.13;;;11.60;99.90;;;;;;4938743;29;20571;-75
2021/05/22 07:03:25;;;;;;;2.17;1.00;;;11.30;99.90;;;;;;4938283;29;20540;-74
2021/05/22 07:05:51;;;;;;;5.10;1.10;;;11.20;99.90;;;;;;4953692;29;20182;-75
2021/05/22 07:08:17;;;;;;;4.05;1.20;;;11.10;99.90;;;;;;4938689;29;20418;-74
2021/05/22 07:10:43;;;;;;;5.88;1.02;;;10.90;99.90;;;;;;4938619;29;20177;-74
2021/05/22 07:13:09;;;;;;;4.93;1.95;;;10.80;99.90;;;;;;4938126;29;20195;-75
2021/05/22 07:15:35;;;;;;;4.03;1.17;;;10.70;99.90;;;;;;4938433;29;20204;-75
2021/05/22 07:18:00;;;;;;;2.93;1.00;;;10.70;99.90;;;;;;4938611;29;20915;-74
2021/05/22 07:20:26;;;;;;;6.83;1.40;;;10.70;99.90;;;;;;4938502;29;20596;-75
2021/05/22 07:22:54;;;;;;;3.53;1.17;;;10.80;99.90;;;;;;4952739;29;20245;-74
2021/05/22 07:25:20;;;;;;;2.17;1.00;;;10.80;99.90;;;;;;4938195;29;20186;-75
2021/05/22 07:27:48;;;;;;;1.88;1.00;;;10.90;99.90;;;;;;4938296;29;20588;-75
2021/05/22 07:30:15;;;;;;;4.93;1.20;;;11.00;99.90;;;;;;4938218;29;20233;-75
2021/05/22 07:32:41;;;;;;;5.25;1.45;;;10.90;99.90;;;;;;4938155;29;20620;-76
2021/05/22 07:35:10;;;;;;;4.80;0.90;;;11.00;99.90;;;;;;4937863;29;20204;-75
2021/05/22 07:37:36;;;;;;;4.38;1.25;;;11.00;99.90;;;;;;4938085;29;20269;-75
2021/05/22 07:40:02;;;;;;;2.58;1.00;;;10.90;99.90;;;;;;4938107;29;20190;-76
2021/05/22 07:42:28;;;;;;;3.47;1.30;;;11.00;99.90;;;;;;4937974;29;20203;-76
2021/05/22 07:44:55;;;;;;;2.27;1.30;;;11.00;99.90;;;;;;4937668;29;20296;-75
2021/05/22 07:47:21;;;;;;;2.63;1.20;;;11.00;99.90;;;;;;4953067;29;20639;-75
2021/05/22 07:49:47;;;;;;;4.07;1.10;;;11.00;99.90;;;;;;4938080;29;20500;-75
2021/05/22 07:52:12;;;;;;;2.13;0.93;;;11.00;99.90;;;;;;4937954;29;20181;-76
2021/05/22 07:54:39;;;;;;;6.93;1.57;;;10.90;99.90;;;;;;4937448;29;20441;-75
2021/05/22 07:57:06;;;;;;;4.13;1.00;;;10.90;99.90;;;;;;4938107;29;20421;-75
2021/05/22 07:59:32;;;;;;;3.03;1.45;;;10.90;99.90;;;;;;4937519;29;20201;-76
2021/05/22 08:01:59;;;;;;;2.83;0.87;;;10.80;99.90;;;;;;4952371;29;20213;-75
2021/05/22 08:04:24;;;;;;;3.05;1.13;;;10.80;99.90;;;;;;4936930;29;20202;-76
2021/05/22 08:06:50;;;;;;;2.63;1.37;;;10.80;99.90;;;;;;4937644;29;20185;-75
2021/05/22 08:09:15;;;;;;;5.73;1.30;;;10.90;99.90;;;;;;4937623;29;20185;-77
2021/05/22 08:11:41;;;;;;;2.33;0.90;;;10.80;99.90;;;;;;4952191;29;20284;-78
2021/05/22 08:14:07;;;;;;;1.70;0.93;;;10.90;99.90;;;;;;4937102;29;20211;-76
2021/05/22 08:16:34;;;;;;;3.50;0.93;;;11.00;99.90;;;;;;4936258;29;20646;-77
2021/05/22 08:19:00;;;;;;;0.90;0.60;;;11.00;99.90;;;;;;4937436;29;20521;-77
2021/05/22 08:21:26;;;;;;;1.57;0.87;;;11.00;99.90;;;;;;4936223;29;20300;-77
2021/05/22 08:23:52;;;;;;;4.95;1.20;;;11.10;99.90;;;;;;4936770;29;20220;-77
2021/05/22 08:26:18;;;;;;;1.67;0.90;;;11.20;99.90;;;;;;4937216;29;20668;-77
2021/05/22 08:28:43;;;;;;;3.15;1.15;;;11.20;99.90;;;;;;4937315;29;20229;-77
2021/05/22 08:31:09;;;;;;;1.40;0.80;;;11.40;99.90;;;;;;4937164;29;20185;-77
2021/05/22 08:33:35;;;;;;;3.50;1.23;;;11.40;99.90;;;;;;4935410;29;20232;-77
2021/05/22 08:36:00;;;;;;;2.77;0.90;;;11.50;99.90;;;;;;4951778;29;20211;-78
2021/05/22 08:38:26;;;;;;;1.80;1.60;;;11.60;99.90;;;;;;4937218;29;20207;-77
2021/05/22 08:40:51;;;;;;;6.20;1.40;;;11.60;99.90;;;;;;4935609;29;20567;-77
2021/05/22 08:43:18;;;;;;;3.97;1.40;;;11.50;99.90;;;;;;4935218;29;20197;-77
2021/05/22 08:45:44;;;;;;;1.35;0.80;;;11.60;99.90;;;;;;4935517;29;20563;-77
2021/05/22 08:48:10;;;;;;;1.67;0.90;;;11.50;99.90;;;;;;4951505;29;20181;-77
2021/05/22 08:50:36;;;;;;;4.70;1.20;;;11.50;99.90;;;;;;4951538;29;20184;-77
2021/05/22 08:53:01;;;;;;;2.87;1.10;;;11.50;99.90;;;;;;4936419;29;20436;-77
2021/05/22 08:55:27;;;;;;;4.40;0.90;;;11.30;99.90;;;;;;4935325;29;20212;-77
2021/05/22 08:57:53;;;;;;;1.90;0.70;;;11.40;99.90;;;;;;4936614;29;20185;-76
2021/05/22 09:00:22;;;;;;;1.45;0.82;;;11.40;99.90;;;;;;4936507;29;20173;-76
2021/05/22 09:02:49;;;;;;;3.97;1.15;;;11.40;99.90;;;;;;4936053;29;20253;-76
2021/05/22 09:05:21;;;;;;;4.30;1.63;;;11.40;99.90;;;;;;4936646;29;20182;-78
2021/05/22 09:07:53;;;;;;;2.72;1.30;;;11.40;99.90;;;;;;4936442;29;20166;-78
2021/05/22 09:10:27;;;;;;;4.93;1.48;;;11.40;99.90;;;;;;4936399;29;20173;-76
2021/05/22 09:12:55;;;;;;;1.95;0.88;;;11.40;99.90;;;;;;4936314;29;20267;-78
2021/05/22 09:15:29;;;;;;;1.25;0.85;;;11.50;99.90;;;;;;4934506;29;20185;-78
2021/05/22 09:18:15;;;;;;;1.98;0.95;;;11.60;99.90;;;;;;4936364;29;20537;-79
2021/05/22 09:20:57;;;;;;;3.45;0.80;;;11.70;99.90;;;;;;4936224;29;20189;-78
2021/05/22 09:23:25;;;;;;;3.40;1.17;;;11.70;99.90;;;;;;4935812;29;20312;-79
2021/05/22 09:25:56;;;;;;;2.08;1.20;;;11.70;99.90;;;;;;4936352;29;20197;-78
2021/05/22 09:28:24;;;;;;;3.33;1.23;;;11.70;99.90;;;;;;4936282;29;20174;-78
2021/05/22 09:30:51;;;;;;;5.30;1.50;;;11.80;99.90;;;;;;4934924;29;20434;-78
2021/05/22 09:33:27;;;;;;;2.10;1.03;;;11.80;99.90;;;;;;4935858;29;20527;-78
2021/05/22 09:36:07;;;;;;;2.97;0.90;;;11.80;99.90;;;;;;4936420;29;20413;-78
2021/05/22 09:38:41;;;;;;;1.23;0.75;;;11.80;99.90;;;;;;4936163;29;20767;-79
2021/05/22 09:41:20;;;;;;;2.45;0.82;;;11.80;99.90;;;;;;4934869;29;20208;-79
2021/05/22 09:44:09;;;;;;;3.80;1.03;;;11.90;99.90;;;;;;4935787;29;20220;-78
2021/05/22 09:46:36;;;;;;;1.77;1.00;;;12.00;99.90;;;;;;4936082;29;20497;-78
2021/05/22 09:49:07;;;;;;;3.30;1.00;;;12.20;99.90;;;;;;4935997;29;20841;-78
2021/05/22 09:51:35;;;;;;;2.70;1.30;;;12.30;99.90;;;;;;4935904;29;20407;-77
2021/05/22 09:54:00;;;;;;;3.67;1.00;;;12.40;99.90;;;;;;4935718;29;20492;-78
2021/05/22 09:56:27;;;;;;;2.53;1.10;;;;;;;;;;4935864;29;20421;-81
2021/05/22 09:59:01;;;;;;;2.60;1.10;;;;;;;;;;4935940;29;20750;-78
2021/05/22 10:01:31;;;;;;;2.00;1.13;;;;;;;;;;4931835;29;20506;-78
2021/05/22 10:04:21;;;;;;;3.33;0.97;;;12.70;99.90;;;;;;4934063;29;20240;-80
2021/05/22 10:06:47;;;;;;;2.40;1.17;;;12.70;99.90;;;;;;4928940;29;20438;-79
2021/05/22 10:09:16;;;;;;;1.90;0.90;;;12.80;99.90;;;;;;4933990;29;20436;-79
2021/05/22 10:12:05;;;;;;;4.70;1.20;;;12.90;99.90;;;;;;4932910;29;21000;-77
2021/05/22 10:14:39;;;;;;;1.47;0.90;;;12.80;99.90;;;;;;4934036;29;20492;-79
2021/05/22 10:17:07;;;;;;;2.60;0.80;;;12.80;99.90;;;;;;4931996;29;20981;-79
2021/05/22 10:19:34;;;;;;;6.83;1.40;;;12.90;99.90;;;;;;4932380;29;20792;-78
2021/05/22 10:22:01;;;;;;;3.23;0.80;;;13.10;99.90;;;;;;4930783;29;20469;-78
2021/05/22 10:24:27;;;;;;;2.97;0.90;;;13.00;99.90;;;;;;4933525;29;20504;-80
2021/05/22 10:26:54;;;;;;;4.70;1.00;;;13.10;99.90;;;;;;4949364;28;20516;-78
2021/05/22 10:29:21;;;;;;;7.50;1.00;;;13.20;99.90;;;;;;4937562;29;21278;-78
2021/05/22 10:31:47;;;;;;;5.40;1.10;;;13.20;99.90;;;;;;4937685;29;20432;-80
2021/05/22 10:34:24;;;;;;;3.63;1.03;;;13.10;99.90;;;;;;4937798;29;20815;-79
2021/05/22 10:36:53;;;;;;;1.20;0.80;;;13.40;99.90;;;;;;4937059;29;20429;-81
2021/05/22 10:39:51;;;;;;;2.53;0.93;;;13.30;99.90;;;;;;4936701;29;21013;-81
2021/05/22 10:42:23;;;;;;;7.80;1.00;;;13.40;99.90;;;;;;4916269;29;20487;-79
2021/05/22 10:44:49;;;;;;;2.47;1.00;;;13.40;99.90;;;;;;4938117;29;20832;-79
2021/05/22 10:47:19;;;;;;;2.10;1.03;;;13.40;99.90;;;;;;4939250;29;20420;-79
2021/05/22 10:49:57;;;;;;;2.63;0.83;;;13.40;99.90;;;;;;4939208;29;20818;-79
2021/05/22 10:52:29;;;;;;;3.07;1.07;;;13.30;99.90;;;;;;4938423;29;20417;-80
2021/05/22 10:55:11;;;;;;;2.07;1.17;;;13.30;99.90;;;;;;4938313;29;20433;-79
2021/05/22 10:57:45;;;;;;;1.87;0.80;;;13.40;99.90;;;;;;4933278;29;20908;-80
2021/05/22 11:00:19;;;;;;;2.63;1.00;;;13.40;99.90;;;;;;4938229;29;20419;-78
2021/05/22 11:03:05;;;;;;;4.47;1.10;;;13.30;99.90;;;;;;4938283;29;20468;-79
2021/05/22 11:05:41;;;;;;;3.20;1.23;;;13.20;99.90;;;;;;4933929;29;21218;-80
2021/05/22 11:08:07;;;;;;;3.97;1.20;;;13.20;99.90;;;;;;4938242;29;20416;-80
2021/05/22 11:10:36;;;;;;;4.83;1.07;;;13.30;99.90;;;;;;4938634;29;20421;-80
2021/05/22 11:13:03;;;;;;;2.40;1.27;;;13.20;99.90;;;;;;4938157;29;20286;-80
2021/05/22 11:15:46;;;;;;;3.47;0.90;;;13.10;99.90;;;;;;4937903;29;20425;-80
2021/05/22 11:18:14;;;;;;;3.33;1.07;;;13.20;99.90;;;;;;4938333;29;20414;-78
2021/05/22 11:20:42;;;;;;;2.63;1.00;;;13.10;99.90;;;;;;4938417;29;20425;-79
2021/05/22 11:23:08;;;;;;;4.20;1.13;;;13.10;99.90;;;;;;4936972;29;20213;-78
2021/05/22 11:25:52;;;;;;;3.63;1.23;;;13.00;99.90;;;;;;4938223;29;20421;-79
2021/05/22 11:28:22;;;;;;;2.70;1.20;;;12.90;99.90;;;;;;4937116;29;20387;-78
2021/05/22 11:30:52;;;;;;;3.07;1.27;;;12.90;99.90;;;;;;4938330;29;20440;-78
2021/05/22 11:33:21;;;;;;;2.40;0.90;;;13.00;99.90;;;;;;4937720;29;20429;-78
2021/05/22 11:35:51;;;;;;;3.30;0.97;;;13.00;99.90;;;;;;4937420;29;20414;-79
2021/05/22 11:38:21;;;;;;;3.43;1.07;;;13.10;99.90;;;;;;4936180;29;20406;-79
2021/05/22 11:40:54;;;;;;;1.83;0.90;;;13.10;99.90;;;;;;4934324;29;20801;-81
2021/05/22 11:43:20;;;;;;;2.97;1.00;;;13.10;99.90;;;;;;4935433;29;20504;-79
2021/05/22 11:45:53;;;;;;;6.57;1.10;;;13.10;99.90;;;;;;4936617;29;20496;-80
2021/05/22 11:48:25;;;;;;;2.33;1.23;;;13.00;99.90;;;;;;4936177;29;20489;-79
2021/05/22 11:50:53;;;;;;;3.80;1.17;;;13.00;99.90;;;;;;4935221;29;20445;-78
2021/05/22 11:53:19;;;;;;;3.07;1.43;;;13.00;99.90;;;;;;4936653;29;20512;-79
2021/05/22 11:55:57;;;;;;;1.70;1.17;;;13.00;99.90;;;;;;4937740;29;20520;-78
2021/05/22 11:58:23;;;;;;;5.57;1.57;;;13.00;99.90;;;;;;4937945;29;20573;-79
2021/05/22 12:00:49;;;;;;;3.23;1.47;;;13.10;99.90;;;;;;4937806;29;20508;-79
2021/05/22 12:03:26;;;;;;;4.17;1.30;;;13.10;99.90;;;;;;4936136;29;20204;-79
2021/05/22 12:05:53;;;;;;;4.23;1.10;;;13.20;99.90;;;;;;4937651;29;20261;-81
2021/05/22 12:08:23;;;;;;;3.30;1.30;;;13.30;99.90;;;;;;4937605;29;20469;-78
2021/05/22 12:10:48;;;;;;;2.97;0.90;;;13.20;99.90;;;;;;4937657;29;20500;-78
2021/05/22 12:13:14;;;;;;;6.23;1.10;;;13.20;99.90;;;;;;4937026;29;20529;-80
2021/05/22 12:15:42;;;;;;;2.90;1.33;;;13.20;99.90;;;;;;4935999;29;20196;-82
2021/05/22 12:18:09;;;;;;;2.80;1.27;;;13.20;99.90;;;;;;4937104;29;20209;-79
2021/05/22 12:20:48;;;;;;;2.03;0.90;;;13.20;99.90;;;;;;4937181;29;20480;-78
2021/05/22 12:23:31;;;;;;;4.70;1.27;;;13.20;99.90;;;;;;4936950;29;20504;-80
2021/05/22 12:25:58;;;;;;;6.40;1.10;;;13.30;99.90;;;;;;4937013;29;20422;-79
2021/05/22 12:28:25;;;;;;;6.47;1.27;;;13.30;99.90;;;;;;4937567;29;20446;-80
2021/05/22 12:30:52;;;;;;;10.07;4.77;;;13.30;99.90;;;;;;4937725;29;20931;-77
2021/05/22 12:33:18;;;;;;;5.90;1.50;;;13.40;99.90;;;;;;4936848;29;20404;-77
2021/05/22 12:35:48;;;;;;;4.70;1.83;;;13.50;99.90;;;;;;4937316;29;20505;-79
2021/05/22 12:38:14;;;;;;;4.30;0.90;;;13.50;99.90;;;;;;4936956;29;20604;-79
2021/05/22 12:40:50;;;;;;;2.80;1.13;;;13.40;99.90;;;;;;4936886;29;20435;-78
2021/05/22 12:43:17;;;;;;;5.77;1.53;;;13.30;99.90;;;;;;4936486;29;20449;-78
2021/05/22 12:45:46;;;;;;;7.50;1.53;;;13.30;99.90;;;;;;4936937;29;20406;-79
2021/05/22 12:48:25;;;;;;;2.83;1.20;;;13.20;99.90;;;;;;4935371;29;20520;-78
2021/05/22 12:50:53;;;;;;;2.43;1.03;;;13.10;99.90;;;;;;4935692;29;20432;-79
2021/05/22 12:53:30;;;;;;;6.77;1.90;;;13.10;99.90;;;;;;4934961;29;20445;-79
2021/05/22 12:56:06;;;;;;;2.97;1.00;;;13.20;99.90;;;;;;4935166;29;20421;-79